Tiempo atmosférico en la estación meteorológica de Garrucha, Puerto, Almería (12 m.)



Fecha
DESCASC
Temp. máxima en grados centígrados (hora)
DESCASC
Temp. mínima en grados centígrados (hora)
DESCASC
Temp. media en grados centígrados
DESCASC
Racha de viento máxima en m/sg (hora)
DESCASC
Velocidad máxima media en intervalos de 10 minutos(hora)
DESCASC
Precipitaciones diarias en mm
DESCASC
Precipitaciones de 00:00 a 06:00 en mm
DESCASC
Precipitaciones de 06:00 a 12:00 en mm
DESCASC
Precipitaciones de 12:00 a 18:00 en mm
DESCASC
Precipitaciones de 18:00 a 24:00 en mm
DESCASC
14-10-2018 24.4 (16:30) 19.3 (08:20) 21.8 14.17 (21:40) 10.56 (13:40) 6.2 0 0 6.2 0
13-10-2018 24.6 (14:10) 19.3 (08:30) 21.9 6.39 (17:10) 4.72 (15:10) 0 0 0 0 0
12-10-2018 26.3 (12:30) 19 (08:10) 22.6 6.11 (15:50) 5.28 (15:50) 0 0 0 0 0
11-10-2018 24.5 (19:30) 18.1 (07:10) 21.3 12.22 (16:00) 10.28 (16:00) 0 0 0 0 0
10-10-2018 24.1 (13:20) 16.6 (04:30) 20.4 6.94 (17:30) 5.56 (17:00) 0 0 0 0 0
08-10-2018 23.9 (13:30) 17.8 (23:59) 20.8 12.5 (02:50) 8.89 (22:10) 50.6 0 0 0 50.6
07-10-2018 25.9 (12:40) 18.9 (06:10) 22.4 12.22 (16:10) 10.56 (16:00) 0 0 0 0 0
06-10-2018 24.2 (20:10) 17.6 (08:00) 20.9 10.56 (17:30) 9.17 (17:30) 0 0 0 0 0
05-10-2018 25.4 (12:20) 17.5 (08:30) 21.4 7.22 (16:30) 5.83 (16:30) 0 0 0 0 0
04-10-2018 24.4 (11:30) 17.6 (00:00) 21 10.83 (17:00) 9.72 (17:30) 0 0 0 0 0
03-10-2018 24.8 (11:50) 17.5 (00:00) 21.1 6.67 (16:40) 5.83 (19:30) 0 0 0 0 0
02-10-2018 25.3 (14:40) 20.2 (00:00) 22.8 8.33 (15:30) 6.67 (14:00) 0 0 0 0 0
01-10-2018 26.4 (11:30) 19.6 (00:00) 23 5.83 (04:10) 4.17 (01:50) 0 0 0 0 0
30-09-2018 24.5 (11:40) 17.8 (00:00) 21.1 9.44 (17:00) 8.06 (16:00) 0 0 0 0 0
29-09-2018 25.2 (11:20) 18.6 (00:00) 21.9 8.89 (16:40) 7.5 (16:30) 0 0 0 0 0
28-09-2018 25.5 (12:00) 19.5 (00:00) 22.5 6.94 (15:10) 5.56 (14:50) 0 0 0 0 0
27-09-2018 25.5 (13:20) 21.7 (00:00) 23.6 13.33 (07:00) 10.28 (16:30) 3 3 0 0 0
26-09-2018 27 (13:10) 23.2 (00:00) 25.1 16.67 (18:00) 12.22 (18:10) 0 0 0 0 0
25-09-2018 27.2 (13:20) 21.6 (00:00) 24.4 11.11 (23:10) 8.33 (23:30) 0 0 0 0 0
24-09-2018 29.9 (12:00) 21.8 (00:00) 25.8 5.28 (08:30) 4.44 (16:30) 0 0 0 0 0
23-09-2018 29.5 (13:50) 20.8 (08:10) 25.1 5.83 (08:10) 4.72 (08:10) 0 0 0 0 0
22-09-2018 27.7 (12:30) 22 (07:50) 24.9 7.22 (23:50) 5.28 (23:59) 0 0 0 0 0
21-09-2018 26.7 (20:00) 21.1 (08:10) 23.9 11.39 (15:40) 10.28 (15:40) 0 0 0 0 0
20-09-2018 27.3 (11:10) 23.5 (06:30) 25.4 6.11 (17:40) 5.28 (18:10) 0 0 0 0 0
19-09-2018 27.4 (11:30) 22.8 (07:50) 25.1 7.22 (14:00) 6.11 (14:20) 0 0 0 0 0
18-09-2018 27.9 (11:50) 22.2 (08:20) 25.1 6.39 (17:20) 5 (17:10) 0 0 0 0 0
17-09-2018 27.5 (16:30) 23 (08:20) 25.3 8.33 (12:20) 6.11 (12:20) 0.6 0.4 0 0.2 0
16-09-2018 28 (13:30) 21.4 (00:00) 24.7 7.78 (14:00) 6.11 (14:10) 0 0 0 0 0
15-09-2018 26.5 (17:20) 20.9 (00:00) 23.7 13.33 (00:30) 9.72 (00:20) 90.8 62 28.6 0.2 0

Gráficas

Temp. máximas Temp. mínimas Temp. medias Precipitaciones Rachas de viento máximas Velocidades máximas media en intervalos de 10 minutos

Datos horarios

Fecha y hora oficial Temperatura (ºC) Velocidad del viento (km/h) Dirección del viento Racha (km/h) Dirección de racha Precipitación (mm) Presión (hPa) Tendencia (hPa) Humedad (%)
2018-10-14 23:00:00 20.1 27 Noroeste 46 Noroeste 0 -- -- 45
2018-10-14 22:00:00 20.1 30 Noroeste 51 Noroeste 0 -- -- 47
2018-10-14 21:00:00 20.4 22 Noroeste 46 Noroeste 0 -- -- 52
2018-10-14 20:00:00 21.5 23 Noroeste 40 Noroeste 0 -- -- 49
2018-10-14 19:00:00 22.8 20 Oeste 36 Oeste 0 -- -- 53
2018-10-14 18:00:00 23.1 22 Oeste 36 Sudoeste 0 -- -- 67
2018-10-14 17:00:00 24 23 Sudoeste 36 Sudoeste 0 -- -- 60
2018-10-14 16:00:00 23.9 16 Sudoeste 26 Sudoeste 0 -- -- 76
2018-10-14 15:00:00 21.3 12 Oeste 36 Sudeste 6.2 -- -- 90
2018-10-14 14:00:00 23.2 32 Sur 44 Sur 0 -- -- 86
2018-10-14 13:00:00 23.5 32 Sur 42 Sur 0 -- -- 82
2018-10-14 12:00:00 23.2 16 Sur 24 Sudeste 0 -- -- 82
2018-10-14 11:00:00 21.1 5 Norte 12 Sudoeste 0 -- -- 87
2018-10-14 10:00:00 20 7 Oeste 14 Sudoeste 0 -- -- 89
2018-10-14 09:00:00 19.4 9 Oeste 12 Oeste 0 -- -- 90
2018-10-14 08:00:00 19.4 6 Oeste 12 Oeste 0 -- -- 89
2018-10-14 07:00:00 19.8 3 Noroeste 10 Oeste 0 -- -- 89
2018-10-14 06:00:00 20.3 8 Oeste 14 Oeste 0 -- -- 88
2018-10-14 05:00:00 20.2 10 Oeste 15 Oeste 0 -- -- 90
2018-10-14 04:00:00 20.2 10 Oeste 15 Oeste 0 -- -- 89
2018-10-14 03:00:00 20.6 7 Oeste 14 Oeste 0 -- -- 89
2018-10-14 02:00:00 21.2 11 Oeste 15 Oeste 0 -- -- 87
2018-10-14 01:00:00 21.2 8 Oeste 14 Oeste 0 -- -- 88
2018-10-14 00:00:00 21.2 11 Oeste 14 Oeste 0 -- -- 89
2018-10-13 23:00:00 21.7 9 Oeste 13 Oeste 0 -- -- 88
2018-10-13 22:00:00 22.3 5 Noroeste 8 Oeste 0 -- -- 85
2018-10-13 21:00:00 22.8 5 Noroeste 9 Norte 0 -- -- 83
2018-10-13 20:00:00 23.1 4 Nordeste 13 Nordeste 0 -- -- 83
2018-10-13 19:00:00 23.2 9 Nordeste 19 Este 0 -- -- 82
2018-10-13 18:00:00 24 11 Este 23 Este 0 -- -- 81
2018-10-13 17:00:00 23.8 15 Este 21 Nordeste 0 -- -- 82
2018-10-13 16:00:00 24.2 17 Este 22 Nordeste 0 -- -- 82
2018-10-13 15:00:00 24.1 16 Este 21 Este 0 -- -- 83
2018-10-13 14:00:00 24.4 15 Nordeste 20 Nordeste 0 -- -- 81
2018-10-13 13:00:00 24 11 Nordeste 18 Nordeste 0 -- -- 81
2018-10-13 12:00:00 23.1 7 Norte 14 Noroeste 0 -- -- 82
2018-10-13 11:00:00 21.5 10 Noroeste 20 Noroeste 0 -- -- 89
2018-10-13 10:00:00 20.3 11 Noroeste 16 Noroeste 0 -- -- 93
2018-10-13 09:00:00 19.6 12 Noroeste 17 Noroeste 0 -- -- 93
2018-10-13 08:00:00 19.4 11 Noroeste 14 Noroeste 0 -- -- 92
2018-10-13 07:00:00 19.6 10 Oeste 17 Oeste 0 -- -- 90
2018-10-13 06:00:00 19.9 8 Noroeste 18 Oeste 0 -- -- 90
2018-10-13 05:00:00 20.4 13 Oeste 18 Oeste 0 -- -- 89
2018-10-13 04:00:00 20.5 12 Oeste 17 Oeste 0 -- -- 89
2018-10-13 03:00:00 20.6 7 Oeste 11 Oeste 0 -- -- 91
2018-10-13 02:00:00 20.9 4 Oeste 11 Oeste 0 -- -- 91
2018-10-13 01:00:00 21 9 Noroeste 14 Oeste 0 -- -- 91
2018-10-13 00:00:00 21.7 7 Oeste 11 Oeste 0 -- -- 91
2018-10-12 23:00:00 22.2 8 Oeste 12 Oeste 0 -- -- 91
2018-10-12 22:00:00 22.4 8 Noroeste 10 Norte 0 -- -- 90
2018-10-12 21:00:00 23.4 5 Norte 9 Nordeste 0 -- -- 88
2018-10-12 20:00:00 23.5 5 Nordeste 14 Sudeste 0 -- -- 86
2018-10-12 19:00:00 23.8 12 Sudeste 19 Sudeste 0 -- -- 84
2018-10-12 18:00:00 23.9 17 Sudeste 21 Sudeste 0 -- -- 87
2018-10-12 17:00:00 23.9 17 Sudeste 21 Sudeste 0 -- -- 87
2018-10-12 16:00:00 23.8 17 Sudeste 22 Sudeste 0 -- -- 86
2018-10-12 15:00:00 24.3 18 Sudeste 20 Sudeste 0 -- -- 80
2018-10-12 14:00:00 25.3 12 Este 14 Este 0 -- -- 73
2018-10-12 13:00:00 25.9 7 Este 11 Nordeste 0 -- -- 68
2018-10-12 12:00:00 24.3 7 Oeste 12 Oeste 0 -- -- 72
2018-10-12 11:00:00 22.8 7 Noroeste 14 Oeste 0 -- -- 75
2018-10-12 10:00:00 20.6 10 Oeste 15 Oeste 0 -- -- 83
2018-10-12 09:00:00 19.7 9 Oeste 16 Oeste 0 -- -- 85
2018-10-12 08:00:00 19.1 11 Noroeste 13 Oeste 0 -- -- 88
2018-10-12 07:00:00 19.3 8 Oeste 16 Oeste 0 -- -- 90
2018-10-12 06:00:00 19.6 11 Oeste 16 Oeste 0 -- -- 89
2018-10-12 05:00:00 19.9 4 Oeste 9 Sudoeste 0 -- -- 89
2018-10-12 04:00:00 20.2 6 Oeste 9 Noroeste 0 -- -- 89
2018-10-12 03:00:00 20.6 9 Oeste 17 Oeste 0 -- -- 88
2018-10-12 02:00:00 20.5 4 Oeste 11 Oeste 0 -- -- 88
2018-10-12 01:00:00 21.6 7 Oeste 17 Oeste 0 -- -- 86
2018-10-12 00:00:00 21.8 11 Oeste 15 Oeste 0 -- -- 84
2018-10-11 23:00:00 22.1 9 Oeste 15 Oeste 0 -- -- 83
2018-10-11 22:00:00 22.5 10 Oeste 15 Oeste 0 -- -- 82
2018-10-11 21:00:00 22.9 12 Oeste 15 Oeste 0 -- -- 81
2018-10-11 20:00:00 24.3 13 Sur 18 Sudeste 0 -- -- 76
2018-10-11 19:00:00 24.3 17 Sur 31 Sur 0 -- -- 77
2018-10-11 18:00:00 24.4 25 Sur 33 Sur 0 -- -- 78
2018-10-11 17:00:00 23.8 26 Sur 42 Sur 0 -- -- 80
2018-10-11 16:00:00 23.4 37 Sur 44 Sur 0 -- -- 86
2018-10-11 15:00:00 23.3 32 Sudeste 39 Sudeste 0 -- -- 85
2018-10-11 14:00:00 23.4 25 Sudeste 31 Sudeste 0 -- -- 80
2018-10-11 13:00:00 23.6 15 Este 18 Este 0 -- -- 72
2018-10-11 12:00:00 23.4 6 Nordeste 10 Noroeste 0 -- -- 73
2018-10-11 11:00:00 21.2 7 Oeste 17 Oeste 0 -- -- 76
2018-10-11 10:00:00 19.8 12 Noroeste 17 Noroeste 0 -- -- 85
2018-10-11 09:00:00 18.3 11 Oeste 22 Oeste 0 -- -- 87
2018-10-11 08:00:00 18.1 13 Oeste 19 Oeste 0 -- -- 90
2018-10-11 07:00:00 18.2 11 Oeste 18 Oeste 0 -- -- 90
2018-10-11 06:00:00 18.3 10 Oeste 16 Oeste 0 -- -- 90
2018-10-11 05:00:00 18.8 11 Oeste 17 Oeste 0 -- -- 90
2018-10-11 04:00:00 19.2 10 Oeste 17 Oeste 0 -- -- 91
2018-10-11 03:00:00 19.3 12 Oeste 15 Sudoeste 0 -- -- 91
2018-10-11 02:00:00 19.8 8 Oeste 19 Sudoeste 0 -- -- 90
2018-10-11 01:00:00 20.1 10 Oeste 16 Oeste 0 -- -- 90
2018-10-11 00:00:00 20.3 9 Oeste 14 Oeste 0 -- -- 91
2018-10-10 23:00:00 21.3 6 Oeste 10 Sudoeste 0 -- -- 88
2018-10-10 22:00:00 21.3 8 Sudoeste 10 Oeste 0 -- -- 87
2018-10-10 21:00:00 22.4 5 Sudoeste 14 Sudeste 0 -- -- 83
2018-10-10 20:00:00 22.7 12 Sudeste 17 Sudeste 0 -- -- 82
2018-10-10 19:00:00 23 14 Sudeste 19 Sudeste 0 -- -- 81
2018-10-10 18:00:00 23.3 17 Sudeste 25 Sudeste 0 -- -- 79
2018-10-10 17:00:00 23.2 20 Sudeste 24 Sudeste 0 -- -- 76
2018-10-10 16:00:00 23.2 17 Este 19 Sudeste 0 -- -- 76
2018-10-10 15:00:00 23.3 13 Este 18 Este 0 -- -- 75
2018-10-10 14:00:00 23.6 10 Nordeste 15 Nordeste 0 -- -- 72
2018-10-10 13:00:00 23.7 7 Nordeste 14 Nordeste 0 -- -- 69
2018-10-10 12:00:00 21.7 6 Noroeste 14 Noroeste 0 -- -- 73
2018-10-10 11:00:00 20.4 11 Noroeste 15 Noroeste 0 -- -- 75
2018-10-10 10:00:00 19.1 9 Noroeste 19 Oeste 0 -- -- 81
2018-10-10 09:00:00 17 12 Oeste 19 Oeste 0 -- -- 88
2018-10-10 08:00:00 17.1 14 Noroeste 19 Oeste 0 -- -- 86
2018-10-10 07:00:00 16.9 14 Oeste 18 Oeste 0 -- -- 87
2018-10-10 06:00:00 17 12 Noroeste 19 Oeste 0 -- -- 87
2018-10-10 05:00:00 16.7 13 Oeste 21 Oeste 0 -- -- 89
2018-10-10 04:00:00 17.1 15 Oeste 19 Oeste 0 -- -- 87
2018-10-10 03:00:00 17.2 14 Oeste 18 Oeste 0 -- -- 87
2018-10-10 02:00:00 17.3 12 Noroeste 17 Oeste 0 -- -- 87
2018-10-10 01:00:00 17.7 10 Noroeste 18 Oeste 0 -- -- 87
2018-10-10 00:00:00 18 13 Noroeste 18 Noroeste 0 -- -- 87
2018-10-09 23:00:00 18.3 10 Noroeste 16 Noroeste 0 -- -- 87
2018-10-09 22:00:00 18.7 10 Noroeste 16 Noroeste 0 -- -- 85
2018-10-09 21:00:00 19.5 9 Noroeste 17 Norte 0 -- -- 82
2018-10-09 20:00:00 20.6 13 Norte 23 Norte 0 -- -- 77
2018-10-09 19:00:00 21 12 Norte 25 Norte 0 -- -- 77
2018-10-09 18:00:00 20.4 12 Norte 29 Norte 0 -- -- 80
2018-10-09 17:00:00 20.3 22 Nordeste 36 Nordeste 0.2 -- -- 88
2018-10-09 16:00:00 19.7 24 Norte 35 Nordeste 1.8 -- -- 92
2018-10-09 15:00:00 19.5 28 Nordeste 41 Este 0 -- -- 90
2018-10-09 14:00:00 21.2 21 Norte 32 Norte 0 -- -- 78
2018-10-09 13:00:00 20.7 18 Nordeste 30 Nordeste 0.4 -- -- 82
2018-10-09 12:00:00 19.3 11 Oeste 19 Noroeste 0 -- -- 81
2018-10-09 11:00:00 19.1 13 Noroeste 22 Noroeste 0 -- -- 80
2018-10-09 10:00:00 18.3 11 Noroeste 18 Noroeste 0 -- -- 83
2018-10-09 09:00:00 17.8 10 Noroeste 19 Noroeste 0 -- -- 85
2018-10-09 08:00:00 17.8 10 Noroeste 18 Noroeste 0 -- -- 84
2018-10-09 07:00:00 17.9 12 Norte 20 Norte 0 -- -- 84
2018-10-09 06:00:00 17.9 9 Noroeste 19 Noroeste 0 -- -- 86
2018-10-09 05:00:00 17.8 10 Norte 15 Noroeste 0 -- -- 90
2018-10-09 04:00:00 17.7 8 Oeste 18 Oeste 0.2 -- -- 93
2018-10-09 03:00:00 17.6 12 Oeste 16 Oeste 0 -- -- 95
2018-10-09 02:00:00 17.4 10 Oeste 15 Oeste 0.6 -- -- 95
2018-10-09 01:00:00 17.2 5 Oeste 17 Sudoeste 9.2 -- -- 96
2018-10-09 00:00:00 17.8 18 Sudoeste 27 Noroeste 7.6 -- -- 93
2018-10-08 23:00:00 19.7 24 Nordeste 42 Nordeste 3.6 -- -- 87
2018-10-08 22:00:00 20.4 29 Nordeste 42 Nordeste 1 -- -- 90
2018-10-08 21:00:00 19.5 22 Este 31 Este 8.2 -- -- 96
2018-10-08 20:00:00 19.4 25 Este 37 Este 30.2 -- -- 93
2018-10-08 19:00:00 22 27 Este 35 Este 0 -- -- 77
2018-10-08 18:00:00 22.4 27 Nordeste 37 Nordeste 0 -- -- 74
2018-10-08 17:00:00 22.6 30 Nordeste 38 Nordeste 0 -- -- 73
2018-10-08 16:00:00 22.9 26 Nordeste 35 Nordeste 0 -- -- 70
2018-10-08 15:00:00 23.4 28 Nordeste 35 Nordeste 0 -- -- 69
2018-10-08 14:00:00 23.8 23 Nordeste 31 Nordeste 0 -- -- 68
2018-10-08 13:00:00 23.6 17 Nordeste 27 Nordeste 0 -- -- 65
2018-10-08 12:00:00 23.4 13 Nordeste 21 Nordeste 0 -- -- 65
2018-10-08 11:00:00 22.4 7 Norte 19 Noroeste 0 -- -- 68
2018-10-08 10:00:00 21.4 10 Noroeste 18 Norte 0 -- -- 67
2018-10-08 09:00:00 20.7 12 Noroeste 17 Noroeste 0 -- -- 69
2018-10-08 08:00:00 20.7 9 Noroeste 13 Noroeste 0 -- -- 69
2018-10-08 07:00:00 21 10 Noroeste 15 Norte 0 -- -- 69
2018-10-08 06:00:00 21.4 8 Noroeste 13 Nordeste 0 -- -- 69
2018-10-08 05:00:00 21.2 5 Oeste 25 Norte 0 -- -- 72
2018-10-08 04:00:00 22.3 18 Nordeste 34 Nordeste 0 -- -- 75
2018-10-08 03:00:00 22.8 27 Nordeste 45 Nordeste 0 -- -- 76
2018-10-08 02:00:00 22.9 23 Nordeste 39 Norte 0 -- -- 77
2018-10-08 01:00:00 23 27 Nordeste 39 Nordeste 0 -- -- 79
2018-10-08 00:00:00 23 26 Nordeste 42 Nordeste 0 -- -- 80
2018-10-07 23:00:00 23.1 30 Nordeste 40 Nordeste 0 -- -- 81
2018-10-07 22:00:00 23.3 29 Nordeste 37 Nordeste 0 -- -- 82
2018-10-07 21:00:00 23.4 31 Nordeste 41 Nordeste 0 -- -- 85
2018-10-07 20:00:00 23.9 32 Nordeste 42 Nordeste 0 -- -- 86
2018-10-07 19:00:00 24.3 24 Nordeste 35 Nordeste 0 -- -- 84
2018-10-07 18:00:00 25.2 19 Nordeste 38 Este 0 -- -- 83
2018-10-07 17:00:00 25 30 Este 44 Sur 0 -- -- 85
2018-10-07 16:00:00 24.6 38 Sur 41 Sur 0 -- -- 86
2018-10-07 15:00:00 25.4 27 Sudeste 35 Sur 0 -- -- 83
2018-10-07 14:00:00 24.8 29 Sudeste 32 Sudeste 0 -- -- 84
2018-10-07 13:00:00 25.2 21 Sudeste 24 Sudeste 0 -- -- 78
2018-10-07 12:00:00 24.9 11 Sudeste 15 Sudeste 0 -- -- 73
2018-10-07 11:00:00 24.6 8 Sudeste 12 Sur 0 -- -- 71
2018-10-07 10:00:00 23.6 4 Sudoeste 25 Oeste 0 -- -- 49
2018-10-07 09:00:00 20.2 17 Oeste 22 Oeste 0 -- -- 58
2018-10-07 08:00:00 19.6 4 Oeste 21 Oeste 0 -- -- 61
2018-10-07 07:00:00 19.2 15 Noroeste 19 Oeste 0 -- -- 69
2018-10-07 06:00:00 19.1 2 Noroeste 12 Sur 0 -- -- 75
2018-10-07 05:00:00 19.3 13 Oeste 21 Oeste 0 -- -- 79
2018-10-07 04:00:00 19.8 8 Oeste 13 Oeste 0 -- -- 82
2018-10-07 03:00:00 20.7 12 Oeste 14 Sudoeste 0 -- -- 81
2018-10-07 02:00:00 20.7 5 Noroeste 10 Oeste 0 -- -- 82
2018-10-07 01:00:00 21.4 6 Oeste 15 Oeste 0 -- -- 82
2018-10-07 00:00:00 21.8 10 Oeste 16 Sudoeste 0 -- -- 83
2018-10-06 23:00:00 21.8 10 Oeste 21 Oeste 0 -- -- 85
2018-10-06 22:00:00 22.3 12 Noroeste 18 Noroeste 0 -- -- 83
2018-10-06 21:00:00 22.8 12 Oeste 33 Sur 0 -- -- 83
2018-10-06 20:00:00 24.1 31 Sur 37 Sur 0 -- -- 82
2018-10-06 19:00:00 23.9 30 Sudeste 37 Sudeste 0 -- -- 81
2018-10-06 18:00:00 23.8 31 Sudeste 38 Sudeste 0 -- -- 83
2018-10-06 17:00:00 23.6 32 Sudeste 37 Sudeste 0 -- -- 82
2018-10-06 16:00:00 23.5 30 Sudeste 35 Sudeste 0 -- -- 82
2018-10-06 15:00:00 23.5 27 Sudeste 32 Sudeste 0 -- -- 80
2018-10-06 14:00:00 23.5 24 Sudeste 28 Sudeste 0 -- -- 79
2018-10-06 13:00:00 23.5 17 Sudeste 21 Sudeste 0 -- -- 78
2018-10-06 12:00:00 23.3 7 Este 11 Este 0 -- -- 73
2018-10-06 11:00:00 22 4 Oeste 13 Noroeste 0 -- -- 73
2018-10-06 10:00:00 19.6 10 Oeste 14 Oeste 0 -- -- 79
2018-10-06 09:00:00 17.9 10 Noroeste 16 Oeste 0 -- -- 83
2018-10-06 08:00:00 17.6 11 Oeste 17 Oeste 0 -- -- 84
2018-10-06 07:00:00 17.9 14 Oeste 19 Oeste 0 -- -- 85
2018-10-06 06:00:00 18.3 13 Oeste 18 Oeste 0 -- -- 85
2018-10-06 05:00:00 18.7 12 Oeste 19 Oeste 0 -- -- 84
2018-10-06 04:00:00 19.1 11 Oeste 15 Oeste 0 -- -- 85
2018-10-06 03:00:00 19.3 10 Oeste 17 Oeste 0 -- -- 83
2018-10-06 02:00:00 19.6 13 Oeste 15 Oeste 0 -- -- 84
2018-10-06 01:00:00 20.4 9 Oeste 15 Oeste 0 -- -- 79
2018-10-06 00:00:00 20.9 10 Oeste 15 Oeste 0 -- -- 81
2018-10-05 23:00:00 21.7 12 Sudoeste 14 Sudoeste 0 -- -- 78
2018-10-05 22:00:00 22.1 10 Sudoeste 13 Sur 0 -- -- 77
2018-10-05 21:00:00 23.1 10 Sudeste 19 Sudeste 0 -- -- 77
2018-10-05 20:00:00 23 15 Sudeste 20 Sudeste 0 -- -- 77
2018-10-05 19:00:00 23.5 16 Sudeste 23 Sudeste 0 -- -- 75
2018-10-05 18:00:00 23.7 18 Sudeste 25 Sudeste 0 -- -- 73
2018-10-05 17:00:00 23.7 20 Sudeste 26 Sudeste 0 -- -- 74
2018-10-05 16:00:00 23.7 19 Sudeste 24 Sudeste 0 -- -- 74
2018-10-05 15:00:00 23.9 16 Este 20 Este 0 -- -- 72
2018-10-05 14:00:00 24.1 13 Sudeste 16 Sudeste 0 -- -- 71
2018-10-05 13:00:00 24.2 8 Este 12 Este 0 -- -- 69
2018-10-05 12:00:00 24.9 3 Nordeste 10 Noroeste 0 -- -- 63
2018-10-05 11:00:00 21.8 7 Noroeste 17 Oeste 0 -- -- 71
2018-10-05 10:00:00 19.8 11 Oeste 18 Oeste 0 -- -- 77
2018-10-05 09:00:00 17.7 14 Oeste 21 Oeste 0 -- -- 84
2018-10-05 08:00:00 17.7 16 Oeste 21 Oeste 0 -- -- 83
2018-10-05 07:00:00 17.9 15 Oeste 19 Oeste 0 -- -- 84
2018-10-05 06:00:00 18.2 14 Oeste 20 Oeste 0 -- -- 83
2018-10-05 05:00:00 18.3 13 Oeste 17 Noroeste 0 -- -- 82
2018-10-05 04:00:00 19.1 10 Oeste 17 Oeste 0 -- -- 78
2018-10-05 03:00:00 19.4 14 Oeste 19 Oeste 0 -- -- 77
2018-10-05 02:00:00 20 11 Oeste 15 Oeste 0 -- -- 76
2018-10-05 01:00:00 20.4 12 Oeste 16 Oeste 0 -- -- 74
2018-10-05 00:00:00 21.4 10 Oeste 15 Oeste 0 -- -- 74
2018-10-04 23:00:00 21.1 9 Sudoeste 15 Sur 0 -- -- 75
2018-10-04 22:00:00 22.6 14 Sur 26 Sur 0 -- -- 72
2018-10-04 21:00:00 23.2 19 Sur 35 Sudeste 0 -- -- 71
2018-10-04 20:00:00 23.3 31 Sudeste 37 Sudeste 0 -- -- 73
2018-10-04 19:00:00 23.5 33 Sudeste 39 Sudeste 0 -- -- 70
2018-10-04 18:00:00 23.4 34 Sudeste 39 Sudeste 0 -- -- 73
2018-10-04 17:00:00 23.4 35 Sudeste 39 Sudeste 0 -- -- 75
2018-10-04 16:00:00 23.4 33 Sudeste 37 Sudeste 0 -- -- 75
2018-10-04 15:00:00 23.4 29 Sudeste 35 Sudeste 0 -- -- 74
2018-10-04 14:00:00 23.3 27 Sudeste 32 Sudeste 0 -- -- 75
2018-10-04 13:00:00 23.4 22 Sudeste 27 Sudeste 0 -- -- 75
2018-10-04 12:00:00 23.2 10 Este 15 Este 0 -- -- 68
2018-10-04 11:00:00 23.1 0 Calma 8 Oeste 0 -- -- 54
2018-10-04 10:00:00 20 5 Oeste 15 Oeste 0 -- -- 58
2018-10-04 09:00:00 17.6 11 Oeste 17 Oeste 0 -- -- 68
2018-10-04 08:00:00 17.8 10 Oeste 21 Oeste 0 -- -- 71
2018-10-04 07:00:00 17.7 5 Oeste 14 Oeste 0 -- -- 68
2018-10-04 06:00:00 18.4 9 Oeste 14 Oeste 0 -- -- 66
2018-10-04 05:00:00 18.1 6 Oeste 17 Oeste 0 -- -- 66
2018-10-04 04:00:00 18.5 11 Oeste 19 Oeste 0 -- -- 65
2018-10-04 03:00:00 19.1 15 Oeste 19 Oeste 0 -- -- 61
2018-10-04 02:00:00 19.1 13 Oeste 17 Oeste 0 -- -- 63
2018-10-04 01:00:00 19.6 12 Oeste 16 Sudoeste 0 -- -- 68
2018-10-04 00:00:00 21.1 10 Sudoeste 17 Oeste 0 -- -- 65
2018-10-03 23:00:00 22 8 Oeste 12 Sudoeste 0 -- -- 56
2018-10-03 22:00:00 22.3 9 Sudoeste 19 Sur 0 -- -- 64
2018-10-03 21:00:00 23.4 18 Sur 22 Sudeste 0 -- -- 71
2018-10-03 20:00:00 23.5 18 Sur 23 Sudeste 0 -- -- 73
2018-10-03 19:00:00 23.8 19 Sudeste 21 Sudeste 0 -- -- 72
2018-10-03 18:00:00 23.6 18 Sudeste 22 Sudeste 0 -- -- 74
2018-10-03 17:00:00 23.6 19 Sudeste 24 Sudeste 0 -- -- 73
2018-10-03 16:00:00 23.5 17 Sudeste 22 Sudeste 0 -- -- 72
2018-10-03 15:00:00 23.5 18 Sudeste 22 Sudeste 0 -- -- 72
2018-10-03 14:00:00 23.4 13 Sudeste 17 Sudeste 0 -- -- 72
2018-10-03 13:00:00 24.2 10 Este 14 Este 0 -- -- 71
2018-10-03 12:00:00 24.1 5 Este 14 Oeste 0 -- -- 63
2018-10-03 11:00:00 22.1 9 Oeste 19 Oeste 0 -- -- 66
2018-10-03 10:00:00 19.7 13 Noroeste 20 Oeste 0 -- -- 74
2018-10-03 09:00:00 17.8 13 Oeste 18 Oeste 0 -- -- 79
2018-10-03 08:00:00 17.9 15 Noroeste 19 Noroeste 0 -- -- 81
2018-10-03 07:00:00 17.7 10 Oeste 16 Oeste 0 -- -- 84
2018-10-03 06:00:00 18 7 Oeste 16 Oeste 0 -- -- 84
2018-10-03 05:00:00 18.7 12 Oeste 18 Oeste 0 -- -- 82
2018-10-03 04:00:00 19.1 12 Oeste 19 Oeste 0 -- -- 81
2018-10-03 03:00:00 19.5 15 Oeste 21 Oeste 0 -- -- 80
2018-10-03 02:00:00 20.4 10 Oeste 17 Oeste 0 -- -- 78
2018-10-03 01:00:00 20.4 14 Oeste 18 Oeste 0 -- -- 78
2018-10-03 00:00:00 21.4 10 Oeste 14 Oeste 0 -- -- 77
2018-10-02 23:00:00 22.6 4 Oeste 10 Sudeste 0 -- -- 73
2018-10-02 22:00:00 23.1 8 Sudeste 18 Sudeste 0 -- -- 74
2018-10-02 21:00:00 23.1 14 Sudeste 22 Sudeste 0 -- -- 73
2018-10-02 20:00:00 23.5 15 Este 22 Este 0 -- -- 70
2018-10-02 19:00:00 23.8 16 Este 21 Este 0 -- -- 68
2018-10-02 18:00:00 24.2 18 Este 27 Este 0 -- -- 69
2018-10-02 17:00:00 24.2 20 Este 30 Este 0 -- -- 67
2018-10-02 16:00:00 24.8 21 Este 30 Este 0 -- -- 64
2018-10-02 15:00:00 25.2 22 Nordeste 28 Nordeste 0 -- -- 64
2018-10-02 14:00:00 24.9 24 Este 30 Nordeste 0 -- -- 69
2018-10-02 13:00:00 25 18 Nordeste 26 Nordeste 0 -- -- 68
2018-10-02 12:00:00 24.8 16 Nordeste 22 Nordeste 0 -- -- 70
2018-10-02 11:00:00 22.9 10 Noroeste 19 Noroeste 0 -- -- 73
2018-10-02 10:00:00 21.7 13 Noroeste 18 Noroeste 0 -- -- 74
2018-10-02 09:00:00 20.4 12 Noroeste 18 Oeste 0 -- -- 75
2018-10-02 08:00:00 20.2 12 Noroeste 20 Noroeste 0 -- -- 78
2018-10-02 07:00:00 20.7 14 Noroeste 18 Noroeste 0 -- -- 83
2018-10-02 06:00:00 20.5 13 Noroeste 19 Oeste 0 -- -- 81
2018-10-02 05:00:00 21.1 14 Oeste 20 Oeste 0 -- -- 79
2018-10-02 04:00:00 20.9 15 Oeste 21 Oeste 0 -- -- 80
2018-10-02 03:00:00 21.3 15 Noroeste 21 Oeste 0 -- -- 85
2018-10-02 02:00:00 21.9 12 Oeste 17 Oeste 0 -- -- 86
2018-10-02 01:00:00 22 12 Oeste 17 Oeste 0 -- -- 87
2018-10-02 00:00:00 22.1 11 Oeste 14 Oeste 0 -- -- 88
2018-10-01 23:00:00 22.5 6 Oeste 9 Noroeste 0 -- -- 87
2018-10-01 22:00:00 24.1 7 Este 13 Este 0 -- -- 84
2018-10-01 21:00:00 24.1 12 Este 15 Este 0 -- -- 83
2018-10-01 20:00:00 24.4 4 Nordeste 8 Noroeste 0 -- -- 80
2018-10-01 19:00:00 24.5 5 Noroeste 8 Noroeste 0 -- -- 78
2018-10-01 18:00:00 24.4 2 Norte 12 Este 0 -- -- 81
2018-10-01 17:00:00 24.7 8 Este 12 Este 0 -- -- 81
2018-10-01 16:00:00 25.1 8 Sudeste 12 Sudeste 0 -- -- 77
2018-10-01 15:00:00 25.1 6 Este 15 Este 0 -- -- 79
2018-10-01 14:00:00 24.7 12 Este 15 Este 0 -- -- 78
2018-10-01 13:00:00 24.9 11 Sudeste 13 Sudeste 0 -- -- 78
2018-10-01 12:00:00 25.3 8 Nordeste 10 Nordeste 0 -- -- 75
2018-10-01 11:00:00 24.9 3 Norte 6 Noroeste 0 -- -- 67
2018-10-01 10:00:00 22.4 4 Oeste 10 Noroeste 0 -- -- 76
2018-10-01 09:00:00 21 5 Noroeste 13 Oeste 0 -- -- 80
2018-10-01 08:00:00 19.6 9 Noroeste 15 Oeste 0 -- -- 86
2018-10-01 07:00:00 19.9 8 Oeste 12 Noroeste 0 -- -- 85
2018-10-01 06:00:00 19.9 5 Noroeste 13 Noroeste 0 -- -- 88
2018-10-01 05:00:00 20.1 7 Noroeste 21 Sudoeste 0 -- -- 87
2018-10-01 04:00:00 21.2 9 Oeste 15 Sudoeste 0 -- -- 86
2018-10-01 03:00:00 21.2 8 Oeste 12 Oeste 0 -- -- 84
2018-10-01 02:00:00 21.5 12 Oeste 18 Sudoeste 0 -- -- 83
2018-10-01 01:00:00 21.5 6 Oeste 14 Oeste 0 -- -- 84
2018-10-01 00:00:00 21.9 12 Oeste 17 Oeste 0 -- -- 84
2018-09-30 23:00:00 22 9 Oeste 15 Oeste 0 -- -- 85
2018-09-30 22:00:00 22.6 9 Sudoeste 25 Sudeste 0 -- -- 83
2018-09-30 21:00:00 23.7 20 Sudeste 24 Sudeste 0 -- -- 81
2018-09-30 20:00:00 23.6 19 Sudeste 23 Sudeste 0 -- -- 79
2018-09-30 19:00:00 23.8 19 Sudeste 27 Sudeste 0 -- -- 79
2018-09-30 18:00:00 23.8 23 Sudeste 31 Sudeste 0 -- -- 78
2018-09-30 17:00:00 23.6 29 Sudeste 34 Sudeste 0 -- -- 78
2018-09-30 16:00:00 23.6 29 Sudeste 33 Sudeste 0 -- -- 78
2018-09-30 15:00:00 23.7 23 Sudeste 27 Sudeste 0 -- -- 78
2018-09-30 14:00:00 23.9 18 Sudeste 22 Sudeste 0 -- -- 75
2018-09-30 13:00:00 23.8 13 Sudeste 16 Sudeste 0 -- -- 77
2018-09-30 12:00:00 24 6 Este 9 Nordeste 0 -- -- 72
2018-09-30 11:00:00 22.3 5 Noroeste 10 Noroeste 0 -- -- 74
2018-09-30 10:00:00 20 8 Noroeste 17 Oeste 0 -- -- 81
2018-09-30 09:00:00 18.6 11 Oeste 15 Oeste 0 -- -- 83
2018-09-30 08:00:00 17.9 11 Oeste 14 Oeste 0 -- -- 87
2018-09-30 07:00:00 18.7 10 Oeste 19 Oeste 0 -- -- 86
2018-09-30 06:00:00 18.4 11 Oeste 17 Oeste 0 -- -- 85
2018-09-30 05:00:00 19 10 Oeste 17 Oeste 0 -- -- 84
2018-09-30 04:00:00 19.6 10 Oeste 14 Oeste 0 -- -- 82
2018-09-30 03:00:00 19.8 12 Oeste 14 Oeste 0 -- -- 82
2018-09-30 02:00:00 20.1 8 Oeste 14 Oeste 0 -- -- 81
2018-09-30 01:00:00 20.7 11 Noroeste 14 Oeste 0 -- -- 81
2018-09-30 00:00:00 21.4 10 Oeste 13 Oeste 0 -- -- 78
2018-09-29 23:00:00 22.2 9 Oeste 12 Oeste 0 -- -- 76
2018-09-29 22:00:00 22.7 7 Sur 17 Sudeste 0 -- -- 74
2018-09-29 21:00:00 23.4 15 Sudeste 25 Sudeste 0 -- -- 75
2018-09-29 20:00:00 23.4 22 Sudeste 29 Sudeste 0 -- -- 74
2018-09-29 19:00:00 23.6 25 Sudeste 31 Sudeste 0 -- -- 73
2018-09-29 18:00:00 23.7 24 Sudeste 31 Sudeste 0 -- -- 74
2018-09-29 17:00:00 23.6 26 Sudeste 32 Sudeste 0 -- -- 76
2018-09-29 16:00:00 23.5 26 Sudeste 30 Sudeste 0 -- -- 76
2018-09-29 15:00:00 23.6 24 Sudeste 29 Sudeste 0 -- -- 76
2018-09-29 14:00:00 23.5 21 Sudeste 26 Sudeste 0 -- -- 75
2018-09-29 13:00:00 23.8 18 Sudeste 23 Sudeste 0 -- -- 77
2018-09-29 12:00:00 23.8 9 Sudeste 11 Sudeste 0 -- -- 73
2018-09-29 11:00:00 23.2 3 Oeste 10 Oeste 0 -- -- 72
2018-09-29 10:00:00 20.6 8 Noroeste 16 Noroeste 0 -- -- 77
2018-09-29 09:00:00 18.9 11 Oeste 16 Oeste 0 -- -- 82
2018-09-29 08:00:00 18.7 12 Oeste 15 Oeste 0 -- -- 84
2018-09-29 07:00:00 18.9 10 Oeste 14 Oeste 0 -- -- 84
2018-09-29 06:00:00 19.4 9 Noroeste 19 Oeste 0 -- -- 84
2018-09-29 05:00:00 19.2 14 Oeste 18 Noroeste 0 -- -- 85
2018-09-29 04:00:00 20.2 14 Oeste 18 Oeste 0 -- -- 81
2018-09-29 03:00:00 20.5 14 Oeste 17 Oeste 0 -- -- 80
2018-09-29 02:00:00 21 13 Oeste 16 Oeste 0 -- -- 78
2018-09-29 01:00:00 21.4 11 Oeste 15 Oeste 0 -- -- 77
2018-09-29 00:00:00 21.9 10 Oeste 13 Oeste 0 -- -- 75
2018-09-28 23:00:00 22.3 9 Oeste 12 Oeste 0 -- -- 75
2018-09-28 22:00:00 23.5 3 Nordeste 8 Sudeste 0 -- -- 72
2018-09-28 21:00:00 23.7 5 Este 12 Este 0 -- -- 72
2018-09-28 20:00:00 24 9 Este 18 Sudeste 0 -- -- 71
2018-09-28 19:00:00 24.6 12 Sudeste 19 Este 0 -- -- 67
2018-09-28 18:00:00 24.8 15 Este 22 Este 0 -- -- 69
2018-09-28 17:00:00 24.6 17 Sudeste 24 Este 0 -- -- 69
2018-09-28 16:00:00 24.7 18 Sudeste 25 Este 0 -- -- 71
2018-09-28 15:00:00 24.6 19 Este 24 Este 0 -- -- 73
2018-09-28 14:00:00 24.5 19 Este 24 Este 0 -- -- 75
2018-09-28 13:00:00 25 15 Este 21 Este 0 -- -- 71
2018-09-28 12:00:00 25.5 10 Nordeste 17 Nordeste 0 -- -- 66
2018-09-28 11:00:00 23.7 10 Noroeste 18 Noroeste 0 -- -- 68
2018-09-28 10:00:00 21.7 12 Noroeste 16 Noroeste 0 -- -- 76
2018-09-28 09:00:00 19.8 13 Noroeste 16 Noroeste 0 -- -- 83
2018-09-28 08:00:00 19.9 13 Noroeste 20 Oeste 0 -- -- 83
2018-09-28 07:00:00 19.9 11 Noroeste 17 Noroeste 0 -- -- 83
2018-09-28 06:00:00 20.3 12 Noroeste 18 Noroeste 0 -- -- 82
2018-09-28 05:00:00 20.6 11 Noroeste 17 Noroeste 0 -- -- 82
2018-09-28 04:00:00 20.8 13 Noroeste 19 Noroeste 0 -- -- 82
2018-09-28 03:00:00 20.7 13 Noroeste 18 Noroeste 0 -- -- 82
2018-09-28 02:00:00 21.3 9 Noroeste 16 Noroeste 0 -- -- 80
2018-09-28 01:00:00 22.2 12 Noroeste 21 Norte 0 -- -- 78
2018-09-28 00:00:00 22.8 13 Norte 18 Noroeste 0 -- -- 74
2018-09-27 23:00:00 23.4 11 Norte 30 Nordeste 0 -- -- 75
2018-09-27 22:00:00 24.2 22 Nordeste 38 Nordeste 0 -- -- 79
2018-09-27 21:00:00 24.4 32 Nordeste 42 Nordeste 0 -- -- 79
2018-09-27 20:00:00 24.6 33 Nordeste 43 Nordeste 0 -- -- 78
2018-09-27 19:00:00 25.1 34 Nordeste 43 Nordeste 0 -- -- 73
2018-09-27 18:00:00 25.1 35 Nordeste 45 Nordeste 0 -- -- 73
2018-09-27 17:00:00 25.3 36 Nordeste 45 Nordeste 0 -- -- 70
2018-09-27 16:00:00 25.4 35 Nordeste 43 Nordeste 0 -- -- 68
2018-09-27 15:00:00 25.4 31 Nordeste 40 Nordeste 0 -- -- 68
2018-09-27 14:00:00 25.4 30 Nordeste 40 Nordeste 0 -- -- 69
2018-09-27 13:00:00 25.4 30 Nordeste 41 Nordeste 0 -- -- 70
2018-09-27 12:00:00 24.7 31 Nordeste 44 Norte 0 -- -- 70
2018-09-27 11:00:00 24.1 27 Nordeste 46 Norte 0 -- -- 73
2018-09-27 10:00:00 23.6 20 Norte 38 Nordeste 0 -- -- 79
2018-09-27 09:00:00 23.6 24 Norte 43 Nordeste 0 -- -- 76
2018-09-27 08:00:00 23.9 29 Norte 47 Norte 0 -- -- 79
2018-09-27 07:00:00 23.9 32 Norte 48 Norte 0 -- -- 83
2018-09-27 06:00:00 23.9 24 Norte 39 Norte 0.2 -- -- 84
2018-09-27 05:00:00 23.8 23 Norte 40 Nordeste 0 -- -- 86
2018-09-27 04:00:00 21.9 18 Noroeste 26 Noroeste 2.4 -- -- 92
2018-09-27 03:00:00 22.7 13 Norte 39 Nordeste 0.4 -- -- 84
2018-09-27 02:00:00 24.1 26 Norte 44 Nordeste 0 -- -- 81
2018-09-27 01:00:00 24.9 32 Nordeste 45 Nordeste 0 -- -- 80
2018-09-27 00:00:00 25 33 Nordeste 46 Norte 0 -- -- 78
2018-09-26 23:00:00 25.2 34 Nordeste 49 Nordeste 0 -- -- 77
2018-09-26 22:00:00 25.4 37 Nordeste 49 Nordeste 0 -- -- 79
2018-09-26 21:00:00 25.2 35 Nordeste 48 Nordeste 0 -- -- 79
2018-09-26 20:00:00 25 40 Nordeste 52 Nordeste 0 -- -- 80
2018-09-26 19:00:00 24.6 29 Nordeste 58 Nordeste 0 -- -- 85
2018-09-26 18:00:00 24.9 43 Nordeste 60 Nordeste 0 -- -- 82
2018-09-26 17:00:00 25.2 41 Este 56 Este 0 -- -- 84
2018-09-26 16:00:00 26.3 40 Nordeste 51 Nordeste 0 -- -- 79
2018-09-26 15:00:00 26.6 31 Nordeste 44 Nordeste 0 -- -- 77
2018-09-26 14:00:00 26.9 25 Nordeste 33 Nordeste 0 -- -- 72
2018-09-26 13:00:00 26.9 27 Nordeste 36 Nordeste 0 -- -- 71
2018-09-26 12:00:00 26.6 19 Nordeste 28 Nordeste 0 -- -- 70
2018-09-26 11:00:00 26.1 12 Norte 21 Nordeste 0 -- -- 71
2018-09-26 10:00:00 24.9 11 Norte 20 Noroeste 0 -- -- 75
2018-09-26 09:00:00 23.2 13 Noroeste 19 Norte 0 -- -- 83
2018-09-26 08:00:00 23.8 12 Noroeste 24 Norte 0 -- -- 81
2018-09-26 07:00:00 24.5 14 Norte 32 Nordeste 0 -- -- 80
2018-09-26 06:00:00 24.9 24 Nordeste 32 Nordeste 0 -- -- 83
2018-09-26 05:00:00 25.1 23 Nordeste 31 Nordeste 0 -- -- 82
2018-09-26 04:00:00 25.1 23 Nordeste 33 Nordeste 0 -- -- 81
2018-09-26 03:00:00 25.2 24 Nordeste 35 Nordeste 0 -- -- 82
2018-09-26 02:00:00 25.2 27 Nordeste 36 Nordeste 0 -- -- 83
2018-09-26 01:00:00 25.2 22 Nordeste 33 Nordeste 0 -- -- 84
2018-09-26 00:00:00 25.2 25 Nordeste 40 Nordeste 0 -- -- 85
2018-09-25 23:00:00 25.4 29 Nordeste 37 Nordeste 0 -- -- 85
2018-09-25 22:00:00 25.4 27 Nordeste 33 Nordeste 0 -- -- 85
2018-09-25 21:00:00 25.5 21 Nordeste 28 Nordeste 0 -- -- 85
2018-09-25 20:00:00 25.7 19 Nordeste 24 Nordeste 0 -- -- 85
2018-09-25 19:00:00 26.4 21 Este 25 Este 0 -- -- 82
2018-09-25 18:00:00 26.9 20 Nordeste 23 Nordeste 0 -- -- 80
2018-09-25 17:00:00 27 17 Nordeste 24 Este 0 -- -- 79
2018-09-25 16:00:00 27.1 19 Nordeste 26 Este 0 -- -- 79
2018-09-25 15:00:00 27.1 20 Nordeste 26 Nordeste 0 -- -- 79
2018-09-25 14:00:00 26.8 21 Nordeste 25 Nordeste 0 -- -- 79
2018-09-25 13:00:00 27.1 16 Nordeste 23 Nordeste 0 -- -- 77
2018-09-25 12:00:00 27 16 Nordeste 24 Norte 0 -- -- 76
2018-09-25 11:00:00 26.2 10 Nordeste 15 Norte 0 -- -- 74
2018-09-25 10:00:00 24.5 12 Noroeste 17 Noroeste 0 -- -- 77
2018-09-25 09:00:00 22.7 10 Noroeste 15 Noroeste 0 -- -- 77
2018-09-25 08:00:00 22.4 11 Noroeste 15 Oeste 0 -- -- 77
2018-09-25 07:00:00 21.6 11 Noroeste 17 Noroeste 0 -- -- 74
2018-09-25 06:00:00 21.7 11 Noroeste 17 Noroeste 0 -- -- 71
2018-09-25 05:00:00 22.3 12 Noroeste 16 Noroeste 0 -- -- 71
2018-09-25 04:00:00 22.5 11 Noroeste 14 Noroeste 0 -- -- 74
2018-09-25 03:00:00 22.9 11 Noroeste 15 Noroeste 0 -- -- 78
2018-09-25 02:00:00 23 13 Noroeste 15 Noroeste 0 -- -- 78
2018-09-25 01:00:00 23.6 11 Oeste 14 Noroeste 0 -- -- 85
2018-09-25 00:00:00 24.5 9 Oeste 13 Oeste 0 -- -- 87
2018-09-24 23:00:00 24.9 6 Noroeste 10 Oeste 0 -- -- 88
2018-09-24 22:00:00 25.9 6 Nordeste 10 Nordeste 0 -- -- 88
2018-09-24 21:00:00 25.9 3 Nordeste 6 Sur 0 -- -- 84
2018-09-24 20:00:00 26.2 6 Sudeste 8 Sur 0 -- -- 82
2018-09-24 19:00:00 27.9 5 Sudeste 9 Sudeste 0 -- -- 75
2018-09-24 18:00:00 27 9 Sudeste 15 Sudeste 0 -- -- 78
2018-09-24 17:00:00 27.3 14 Sudeste 19 Sudeste 0 -- -- 74
2018-09-24 16:00:00 28.1 14 Este 17 Este 0 -- -- 67
2018-09-24 15:00:00 28.3 9 Este 14 Este 0 -- -- 67
2018-09-24 14:00:00 28.2 10 Este 11 Este 0 -- -- 66
2018-09-24 13:00:00 28.6 9 Este 10 Nordeste 0 -- -- 62
2018-09-24 12:00:00 29.9 7 Nordeste 10 Nordeste 0 -- -- 56
2018-09-24 11:00:00 27.9 4 Norte 13 Noroeste 0 -- -- 48
2018-09-24 10:00:00 24.8 10 Noroeste 15 Oeste 0 -- -- 54
2018-09-24 09:00:00 23.1 10 Oeste 19 Oeste 0 -- -- 57
2018-09-24 08:00:00 21.8 13 Oeste 17 Oeste 0 -- -- 61
2018-09-24 07:00:00 22.6 8 Oeste 17 Oeste 0 -- -- 58
2018-09-24 06:00:00 23.1 8 Oeste 13 Oeste 0 -- -- 58
2018-09-24 05:00:00 23.1 12 Oeste 16 Oeste 0 -- -- 58
2018-09-24 04:00:00 24 8 Oeste 15 Oeste 0 -- -- 56
2018-09-24 03:00:00 23.6 9 Oeste 17 Oeste 0 -- -- 59
2018-09-24 02:00:00 24.2 13 Oeste 17 Oeste 0 -- -- 56
2018-09-24 01:00:00 24.1 12 Oeste 15 Noroeste 0 -- -- 58
2018-09-24 00:00:00 24.3 12 Noroeste 16 Oeste 0 -- -- 59
2018-09-23 23:00:00 24.6 15 Oeste 17 Noroeste 0 -- -- 60
2018-09-23 22:00:00 25.2 8 Noroeste 12 Oeste 0 -- -- 67
2018-09-23 21:00:00 26.2 3 Norte 8 Noroeste 0 -- -- 67
2018-09-23 20:00:00 26.3 5 Norte 9 Norte 0 -- -- 78
2018-09-23 19:00:00 28.3 3 Nordeste 8 Nordeste 0 -- -- 74
2018-09-23 18:00:00 28.2 5 Nordeste 13 Nordeste 0 -- -- 76
2018-09-23 17:00:00 27.6 12 Este 13 Este 0 -- -- 76
2018-09-23 16:00:00 28.4 10 Nordeste 16 Este 0 -- -- 68
2018-09-23 15:00:00 27.7 14 Este 18 Este 0 -- -- 66
2018-09-23 14:00:00 29.3 9 Nordeste 13 Nordeste 0 -- -- 61
2018-09-23 13:00:00 28.7 3 Nordeste 9 Nordeste 0 -- -- 58
2018-09-23 12:00:00 29.4 8 Nordeste 10 Nordeste 0 -- -- 49
2018-09-23 11:00:00 26.8 6 Noroeste 13 Noroeste 0 -- -- 51
2018-09-23 10:00:00 23.3 10 Noroeste 19 Noroeste 0 -- -- 62
2018-09-23 09:00:00 21.3 11 Noroeste 21 Oeste 0 -- -- 61
2018-09-23 08:00:00 21.3 14 Oeste 21 Oeste 0 -- -- 58
2018-09-23 07:00:00 21.8 13 Oeste 17 Oeste 0 -- -- 57
2018-09-23 06:00:00 21.6 10 Oeste 17 Oeste 0 -- -- 59
2018-09-23 05:00:00 22.4 12 Noroeste 19 Oeste 0 -- -- 53
2018-09-23 04:00:00 22.3 12 Noroeste 17 Oeste 0 -- -- 60
2018-09-23 03:00:00 23 15 Noroeste 18 Noroeste 0 -- -- 53
2018-09-23 02:00:00 23.1 11 Oeste 15 Oeste 0 -- -- 60
2018-09-23 01:00:00 23 10 Noroeste 21 Oeste 0 -- -- 61
2018-09-23 00:00:00 23.2 19 Oeste 26 Oeste 0 -- -- 71
2018-09-22 23:00:00 23.7 10 Oeste 14 Oeste 0 -- -- 80
2018-09-22 22:00:00 24.4 4 Oeste 10 Noroeste 0 -- -- 86
2018-09-22 21:00:00 25.1 0 Calma 6 Este 0 -- -- 83
2018-09-22 20:00:00 25.8 5 Sudeste 10 Este 0 -- -- 80
2018-09-22 19:00:00 26.7 8 Sudeste 11 Este 0 -- -- 77
2018-09-22 18:00:00 26.8 9 Este 14 Este 0 -- -- 77
2018-09-22 17:00:00 26.6 12 Este 14 Este 0 -- -- 76
2018-09-22 16:00:00 26.8 11 Este 19 Este 0 -- -- 76
2018-09-22 15:00:00 26.3 16 Este 19 Este 0 -- -- 80
2018-09-22 14:00:00 26.1 16 Este 20 Este 0 -- -- 81
2018-09-22 13:00:00 27.4 15 Nordeste 19 Este 0 -- -- 79
2018-09-22 12:00:00 27.6 10 Nordeste 14 Nordeste 0 -- -- 78
2018-09-22 11:00:00 25.7 7 Noroeste 15 Oeste 0 -- -- 78
2018-09-22 10:00:00 22.8 13 Oeste 16 Oeste 0 -- -- 83
2018-09-22 09:00:00 22.1 9 Oeste 13 Oeste 0 -- -- 87
2018-09-22 08:00:00 22 11 Oeste 15 Oeste 0 -- -- 86
2018-09-22 07:00:00 22.5 9 Oeste 13 Oeste 0 -- -- 86
2018-09-22 06:00:00 22.8 11 Oeste 15 Sudoeste 0 -- -- 81
2018-09-22 05:00:00 22.9 7 Oeste 12 Oeste 0 -- -- 87
2018-09-22 04:00:00 22.7 9 Oeste 12 Oeste 0 -- -- 88
2018-09-22 03:00:00 23.4 9 Oeste 12 Oeste 0 -- -- 87
2018-09-22 02:00:00 23.6 5 Oeste 11 Oeste 0 -- -- 90
2018-09-22 01:00:00 24.2 5 Noroeste 9 Oeste 0 -- -- 86
2018-09-22 00:00:00 24.1 6 Noroeste 9 Noroeste 0 -- -- 88
2018-09-21 23:00:00 24.4 8 Noroeste 10 Noroeste 0 -- -- 88
2018-09-21 22:00:00 24.7 9 Noroeste 20 Norte 0 -- -- 87
2018-09-21 21:00:00 25.2 14 Norte 21 Norte 0 -- -- 89
2018-09-21 20:00:00 26.7 9 Sudoeste 33 Sur 0 -- -- 84
2018-09-21 19:00:00 25.8 28 Sur 38 Sudeste 0 -- -- 89
2018-09-21 18:00:00 25.3 34 Sur 39 Sudeste 0 -- -- 85
2018-09-21 17:00:00 25.2 37 Sudeste 41 Sudeste 0 -- -- 88
2018-09-21 16:00:00 25.1 36 Sur 41 Sudeste 0 -- -- 89
2018-09-21 15:00:00 25 32 Sudeste 35 Sudeste 0 -- -- 89
2018-09-21 14:00:00 25.2 25 Sudeste 28 Sudeste 0 -- -- 88
2018-09-21 13:00:00 25.2 17 Sudeste 19 Sudeste 0 -- -- 86
2018-09-21 12:00:00 25.6 12 Sudeste 15 Sudeste 0 -- -- 83
2018-09-21 11:00:00 25.8 3 Nordeste 8 Noroeste 0 -- -- 72
2018-09-21 10:00:00 23.2 6 Noroeste 16 Oeste 0 -- -- 74
2018-09-21 09:00:00 21.2 10 Oeste 14 Oeste 0 -- -- 82
2018-09-21 08:00:00 21.2 9 Oeste 12 Oeste 0 -- -- 87
2018-09-21 07:00:00 21.3 10 Oeste 17 Sudoeste 0 -- -- 87
2018-09-21 06:00:00 21.7 10 Oeste 13 Oeste 0 -- -- 86
2018-09-21 05:00:00 21.7 12 Oeste 16 Oeste 0 -- -- 89
2018-09-21 04:00:00 22 9 Sudoeste 18 Sudoeste 0 -- -- 88
2018-09-21 03:00:00 22.6 9 Oeste 14 Sudoeste 0 -- -- 87
2018-09-21 02:00:00 22.6 13 Sudoeste 21 Sudoeste 0 -- -- 87
2018-09-21 01:00:00 23.4 7 Oeste 18 Oeste 0 -- -- 88
2018-09-21 00:00:00 23.5 10 Sudoeste 14 Sudoeste 0 -- -- 90
2018-09-20 23:00:00 24.4 8 Sudoeste 10 Sudoeste 0 -- -- 86
2018-09-20 22:00:00 24.9 7 Sudeste 12 Sudeste 0 -- -- 85
2018-09-20 21:00:00 25 10 Sudeste 19 Sudeste 0 -- -- 85
2018-09-20 20:00:00 25.3 15 Sudeste 20 Sudeste 0 -- -- 85
2018-09-20 19:00:00 25.7 17 Sudeste 22 Sudeste 0 -- -- 83
2018-09-20 18:00:00 25.9 17 Sudeste 22 Sudeste 0 -- -- 81
2018-09-20 17:00:00 26.1 16 Sudeste 21 Sudeste 0 -- -- 82
2018-09-20 16:00:00 26.3 17 Sudeste 21 Sudeste 0 -- -- 81
2018-09-20 15:00:00 26.3 15 Sudeste 18 Este 0 -- -- 80
2018-09-20 14:00:00 26.5 14 Sudeste 18 Sudeste 0 -- -- 79
2018-09-20 13:00:00 26.8 12 Este 15 Este 0 -- -- 79
2018-09-20 12:00:00 26.5 9 Este 13 Sudeste 0 -- -- 81
2018-09-20 11:00:00 26.9 4 Nordeste 9 Noroeste 0 -- -- 80
2018-09-20 10:00:00 24.8 7 Oeste 12 Oeste 0 -- -- 86
2018-09-20 09:00:00 24.1 6 Noroeste 13 Noroeste 0 -- -- 90
2018-09-20 08:00:00 23.6 5 Noroeste 10 Oeste 0 -- -- 92
2018-09-20 07:00:00 23.6 8 Oeste 14 Oeste 0 -- -- 92
2018-09-20 06:00:00 23.6 9 Oeste 12 Noroeste 0 -- -- 93
2018-09-20 05:00:00 23.7 8 Oeste 10 Oeste 0 -- -- 93
2018-09-20 04:00:00 24.2 4 Oeste 8 Oeste 0 -- -- 92
2018-09-20 03:00:00 24.4 6 Oeste 10 Oeste 0 -- -- 92
2018-09-20 02:00:00 24.8 5 Noroeste 8 Noroeste 0 -- -- 91
2018-09-20 01:00:00 25.1 2 Noroeste 7 Oeste 0 -- -- 89
2018-09-20 00:00:00 25.3 4 Nordeste 9 Este 0 -- -- 88
2018-09-19 23:00:00 25.4 4 Este 9 Nordeste 0 -- -- 87
2018-09-19 22:00:00 25.5 6 Este 10 Sudeste 0 -- -- 87
2018-09-19 21:00:00 25.6 8 Sudeste 15 Este 0 -- -- 85
2018-09-19 20:00:00 25.8 10 Este 13 Este 0 -- -- 85
2018-09-19 19:00:00 26 10 Sudeste 16 Este 0 -- -- 84
2018-09-19 18:00:00 26.7 13 Este 17 Sudeste 0 -- -- 82
2018-09-19 17:00:00 26.3 14 Sudeste 20 Sudeste 0 -- -- 85
2018-09-19 16:00:00 26.2 17 Sudeste 24 Este 0 -- -- 86
2018-09-19 15:00:00 26.3 21 Este 26 Este 0 -- -- 85
2018-09-19 14:00:00 26.1 21 Este 26 Este 0 -- -- 86
2018-09-19 13:00:00 26.2 16 Este 19 Este 0 -- -- 84
2018-09-19 12:00:00 27 11 Este 12 Este 0 -- -- 76
2018-09-19 11:00:00 26.1 6 Noroeste 12 Noroeste 0 -- -- 77
2018-09-19 10:00:00 24.4 8 Noroeste 17 Oeste 0 -- -- 85
2018-09-19 09:00:00 23.1 13 Oeste 15 Oeste 0 -- -- 90
2018-09-19 08:00:00 22.8 10 Oeste 13 Oeste 0 -- -- 91
2018-09-19 07:00:00 22.9 3 Oeste 11 Oeste 0 -- -- 92
2018-09-19 06:00:00 23.2 9 Oeste 17 Sudoeste 0 -- -- 92
2018-09-19 05:00:00 23.6 11 Oeste 14 Oeste 0 -- -- 93
2018-09-19 04:00:00 23.9 8 Oeste 14 Oeste 0 -- -- 92
2018-09-19 03:00:00 24.3 8 Oeste 10 Oeste 0 -- -- 94
2018-09-19 02:00:00 24.5 6 Noroeste 8 Noroeste 0 -- -- 91
2018-09-19 01:00:00 24.8 8 Sudoeste 10 Sudoeste 0 -- -- 90
2018-09-19 00:00:00 24.8 7 Oeste 9 Oeste 0 -- -- 90
2018-09-18 23:00:00 25.4 0 Calma 9 Sudeste 0 -- -- 88
2018-09-18 22:00:00 25.6 6 Sudeste 14 Este 0 -- -- 88
2018-09-18 21:00:00 25.9 8 Este 12 Este 0 -- -- 87
2018-09-18 20:00:00 26 9 Sudeste 18 Sudeste 0 -- -- 83
2018-09-18 19:00:00 26.2 16 Sudeste 20 Sudeste 0 -- -- 82
2018-09-18 18:00:00 26.4 16 Sudeste 23 Sudeste 0 -- -- 80
2018-09-18 17:00:00 26.4 17 Sudeste 20 Sudeste 0 -- -- 80
2018-09-18 16:00:00 26.6 17 Sudeste 19 Sudeste 0 -- -- 78
2018-09-18 15:00:00 26.8 15 Sudeste 18 Sudeste 0 -- -- 78
2018-09-18 14:00:00 27.1 11 Este 13 Sudeste 0 -- -- 76
2018-09-18 13:00:00 26.9 9 Este 13 Este 0 -- -- 73
2018-09-18 12:00:00 27.8 7 Nordeste 13 Nordeste 0 -- -- 71
2018-09-18 11:00:00 26.4 5 Norte 14 Noroeste 0 -- -- 73
2018-09-18 10:00:00 24.3 11 Noroeste 18 Oeste 0 -- -- 80
2018-09-18 09:00:00 22.3 13 Oeste 18 Noroeste 0 -- -- 89
2018-09-18 08:00:00 22.4 12 Noroeste 18 Noroeste 0 -- -- 91
2018-09-18 07:00:00 22.5 7 Noroeste 10 Oeste 0 -- -- 92
2018-09-18 06:00:00 23 6 Noroeste 12 Noroeste 0 -- -- 92
2018-09-18 05:00:00 23 9 Noroeste 13 Noroeste 0 -- -- 92
2018-09-18 04:00:00 23.2 8 Noroeste 18 Noroeste 0 -- -- 92
2018-09-18 03:00:00 23.6 12 Noroeste 17 Noroeste 0 -- -- 90
2018-09-18 02:00:00 23.9 8 Noroeste 13 Noroeste 0 -- -- 90
2018-09-18 01:00:00 24.2 7 Norte 12 Norte 0 -- -- 92
2018-09-18 00:00:00 25.2 10 Noroeste 24 Nordeste 0 -- -- 89
2018-09-17 23:00:00 25.4 17 Nordeste 23 Nordeste 0 -- -- 91
2018-09-17 22:00:00 25.7 12 Nordeste 19 Nordeste 0 -- -- 89
2018-09-17 21:00:00 25.7 13 Nordeste 19 Nordeste 0 -- -- 88
2018-09-17 20:00:00 25.7 12 Nordeste 17 Nordeste 0 -- -- 88
2018-09-17 19:00:00 26.3 14 Nordeste 24 Nordeste 0 -- -- 87
2018-09-17 18:00:00 27.1 17 Nordeste 25 Nordeste 0 -- -- 82
2018-09-17 17:00:00 27.3 17 Nordeste 24 Nordeste 0 -- -- 81
2018-09-17 16:00:00 27.1 18 Nordeste 26 Nordeste 0 -- -- 82
2018-09-17 15:00:00 26.3 16 Nordeste 25 Nordeste 0.2 -- -- 83
2018-09-17 14:00:00 26.6 17 Nordeste 28 Nordeste 0 -- -- 81
2018-09-17 13:00:00 25.9 21 Nordeste 30 Nordeste 0 -- -- 83
2018-09-17 12:00:00 25.9 20 Nordeste 26 Nordeste 0 -- -- 82
2018-09-17 11:00:00 25.8 12 Nordeste 18 Nordeste 0 -- -- 81
2018-09-17 10:00:00 23.8 8 Noroeste 15 Noroeste 0 -- -- 85
2018-09-17 09:00:00 23.2 8 Noroeste 12 Oeste 0 -- -- 88
2018-09-17 08:00:00 23.1 9 Noroeste 14 Noroeste 0 -- -- 90
2018-09-17 07:00:00 23.3 12 Noroeste 18 Noroeste 0 -- -- 89
2018-09-17 06:00:00 23.2 9 Noroeste 20 Noroeste 0 -- -- 91
2018-09-17 05:00:00 23.4 9 Noroeste 16 Noroeste 0.4 -- -- 92
2018-09-17 04:00:00 23.4 11 Noroeste 17 Oeste 0 -- -- 92
2018-09-17 03:00:00 23.7 11 Noroeste 16 Noroeste 0 -- -- 93
2018-09-17 02:00:00 24.1 6 Noroeste 12 Noroeste 0 -- -- 93
2018-09-17 01:00:00 24.4 7 Oeste 10 Oeste 0 -- -- 92
2018-09-17 00:00:00 24.7 3 Noroeste 9 Noroeste 0 -- -- 92
2018-09-16 23:00:00 24.8 6 Oeste 12 Oeste 0 -- -- 91
2018-09-16 22:00:00 25.4 9 Norte 15 Nordeste 0 -- -- 90
2018-09-16 21:00:00 25.5 10 Norte 16 Nordeste 0 -- -- 89
2018-09-16 20:00:00 25.9 12 Nordeste 17 Nordeste 0 -- -- 88
2018-09-16 19:00:00 26.2 12 Este 23 Este 0 -- -- 84
2018-09-16 18:00:00 25.9 21 Este 25 Este 0 -- -- 84
2018-09-16 17:00:00 27.7 9 Nordeste 14 Nordeste 0 -- -- 74
2018-09-16 16:00:00 27.2 9 Nordeste 20 Nordeste 0 -- -- 75
2018-09-16 15:00:00 27.1 12 Nordeste 26 Nordeste 0 -- -- 72
2018-09-16 14:00:00 27.1 20 Nordeste 28 Nordeste 0 -- -- 70
2018-09-16 13:00:00 27.3 7 Nordeste 12 Nordeste 0 -- -- 69
2018-09-16 12:00:00 26.3 8 Nordeste 27 Noroeste 0 -- -- 74
2018-09-16 11:00:00 24.1 18 Noroeste 26 Noroeste 0 -- -- 74
2018-09-16 10:00:00 22.4 12 Noroeste 22 Noroeste 0 -- -- 86
2018-09-16 09:00:00 21.8 13 Noroeste 16 Noroeste 0 -- -- 89
2018-09-16 08:00:00 21.5 10 Noroeste 17 Norte 0 -- -- 91
2018-09-16 07:00:00 21.5 12 Noroeste 17 Noroeste 0 -- -- 91
2018-09-16 06:00:00 21.7 8 Noroeste 15 Noroeste 0 -- -- 92
2018-09-16 05:00:00 21.9 13 Noroeste 16 Noroeste 0 -- -- 92
2018-09-16 04:00:00 21.8 14 Noroeste 17 Noroeste 0 -- -- 92
2018-09-16 03:00:00 22.4 8 Noroeste 14 Noroeste 0 -- -- 90
2018-09-16 02:00:00 22.9 10 Noroeste 14 Noroeste 0 -- -- 88
2018-09-16 01:00:00 23 8 Noroeste 12 Noroeste 0 -- -- 89
2018-09-16 00:00:00 23.5 7 Noroeste 13 Noroeste 0 -- -- 89
2018-09-15 23:00:00 24.6 9 Norte 23 Nordeste 0 -- -- 83
2018-09-15 22:00:00 25.2 15 Nordeste 23 Nordeste 0 -- -- 84
2018-09-15 21:00:00 25.4 17 Nordeste 23 Nordeste 0 -- -- 83
2018-09-15 20:00:00 25.4 16 Nordeste 28 Nordeste 0 -- -- 82
2018-09-15 19:00:00 25.7 22 Nordeste 30 Nordeste 0 -- -- 81
2018-09-15 18:00:00 26.1 23 Nordeste 29 Nordeste 0.2 -- -- 81
2018-09-15 17:00:00 26.4 15 Este 19 Noroeste 0 -- -- 79
2018-09-15 16:00:00 25.5 15 Oeste 23 Oeste 0 -- -- 80
2018-09-15 15:00:00 24.5 14 Noroeste 21 Oeste 0 -- -- 83
2018-09-15 14:00:00 22.8 17 Noroeste 23 Oeste 0 -- -- 94
2018-09-15 13:00:00 21.4 14 Noroeste 23 Noroeste 0 -- -- 98
2018-09-15 12:00:00 20.9 18 Noroeste 29 Oeste 22.4 -- -- 99
2018-09-15 11:00:00 21.6 18 Oeste 31 Sudoeste 1.8 -- -- 94
2018-09-15 10:00:00 21.7 17 Noroeste 23 Noroeste 4.4 -- -- 96
2018-09-15 09:00:00 22 10 Norte 19 Norte 0 -- -- 93
2018-09-15 08:00:00 22.3 14 Norte 31 Nordeste 0 -- -- 94
2018-09-15 07:00:00 21.7 27 Norte 39 Nordeste 0 -- -- 99
2018-09-15 06:00:00 21.5 6 Oeste 21 Norte 15 -- -- 99
2018-09-15 05:00:00 21.9 15 Noroeste 25 Noroeste 23.4 -- -- 97
2018-09-15 04:00:00 22.5 9 Oeste 20 Noroeste 14 -- -- 93
2018-09-15 03:00:00 22.6 13 Oeste 18 Oeste 0 -- -- 91
2018-09-15 02:00:00 22.6 14 Noroeste 36 Norte 1.4 -- -- 90
2018-09-15 01:00:00 22.4 20 Norte 48 Este 8.2 -- -- 92
2018-09-15 00:00:00 25.5 19 Nordeste 28 Nordeste 0 -- -- 84